Time;durP1;ratioP1;P1;durP2;ratioP2;P2;SDS_P1;SDS_P2;PMS_P1;PMS_P2;Temp;Humidity;BMP_temperature;BMP_pressure;BME280_temperature;BME280_humidity;BME280_pressure;Samples;Min_cycle;Max_cycle;Signal;HPM_P1;HPM_P2
2023/07/10 00:01:15;;;;;;;4.33;2.53;;;21.10;93.70;;;;;;5091891;28;20848;-75
2023/07/10 00:03:41;;;;;;;5.90;2.10;;;21.10;93.70;;;;;;5092773;28;20422;-75
2023/07/10 00:06:11;;;;;;;5.00;2.13;;;21.10;93.60;;;;;;5090809;28;20414;-75
2023/07/10 00:08:37;;;;;;;6.20;2.27;;;21.10;93.50;;;;;;5058004;28;20179;-75
2023/07/10 00:11:03;;;;;;;6.23;2.60;;;21.10;93.60;;;;;;5075312;28;20411;-75
2023/07/10 00:13:30;;;;;;;4.40;2.60;;;21.20;93.40;;;;;;5082106;28;20293;-75
2023/07/10 00:15:56;;;;;;;5.13;2.27;;;21.20;93.00;;;;;;5089224;28;20468;-75
2023/07/10 00:18:22;;;;;;;6.30;3.13;;;21.20;92.30;;;;;;5086987;28;20418;-75
2023/07/10 00:20:49;;;;;;;4.07;1.80;;;21.30;92.90;;;;;;5091776;28;20669;-75
2023/07/10 00:23:15;;;;;;;5.10;1.80;;;21.30;92.60;;;;;;5076592;28;20466;-75
2023/07/10 00:25:42;;;;;;;10.93;2.60;;;21.30;92.90;;;;;;5082387;28;20446;-75
2023/07/10 00:28:16;;;;;;;7.73;2.23;;;21.20;92.70;;;;;;5083911;28;20417;-75
2023/07/10 00:30:42;;;;;;;9.70;2.30;;;21.30;91.50;;;;;;5070459;28;20414;-74
2023/07/10 00:33:10;;;;;;;3.83;1.93;;;21.40;91.40;;;;;;5076033;28;20426;-74
2023/07/10 00:35:36;;;;;;;7.40;2.50;;;21.40;91.50;;;;;;5091727;28;20419;-75
2023/07/10 00:38:27;;;;;;;5.87;2.63;;;21.40;91.50;;;;;;5091558;28;20467;-75
2023/07/10 00:40:54;;;;;;;12.13;2.17;;;21.30;91.90;;;;;;5070072;28;20180;-76
2023/07/10 00:43:39;;;;;;;9.90;2.30;;;21.20;92.00;;;;;;5082593;28;20412;-75
2023/07/10 00:46:26;;;;;;;6.07;3.07;;;21.10;91.20;;;;;;5083812;28;20410;-74
2023/07/10 00:49:18;;;;;;;7.53;3.23;;;21.60;90.30;;;;;;5068719;28;20914;-75
2023/07/10 00:52:09;;;;;;;2.90;1.73;;;21.60;90.40;;;;;;5090309;28;20856;-75
2023/07/10 00:54:37;;;;;;;4.70;2.13;;;21.60;90.40;;;;;;5091500;28;20426;-74
2023/07/10 00:57:10;;;;;;;7.03;3.33;;;21.60;90.80;;;;;;5091486;28;20414;-75
2023/07/10 00:59:39;;;;;;;4.60;2.23;;;21.60;90.80;;;;;;5090490;28;20418;-74
2023/07/10 01:02:08;;;;;;;4.43;2.30;;;21.60;90.90;;;;;;5090080;28;20515;-74
2023/07/10 01:04:39;;;;;;;4.33;2.60;;;21.60;90.90;;;;;;5087579;28;20407;-74
2023/07/10 01:07:12;;;;;;;12.70;2.90;;;21.50;91.40;;;;;;5073125;28;20419;-74
2023/07/10 01:09:42;;;;;;;6.60;2.40;;;21.40;91.50;;;;;;5057504;28;21354;-74
2023/07/10 01:12:08;;;;;;;4.47;2.20;;;21.30;91.70;;;;;;5083855;28;20414;-74
2023/07/10 01:14:35;;;;;;;3.70;2.60;;;21.30;91.40;;;;;;5078180;28;20418;-74
2023/07/10 01:17:03;;;;;;;6.23;3.20;;;21.30;91.80;;;;;;5086346;28;20511;-74
2023/07/10 01:19:30;;;;;;;3.30;1.93;;;21.20;91.70;;;;;;5077099;28;20442;-74
2023/07/10 01:21:56;;;;;;;3.87;2.33;;;21.10;91.90;;;;;;5088971;28;20501;-74
2023/07/10 01:24:21;;;;;;;6.73;2.10;;;21.00;92.30;;;;;;5074708;28;20450;-74
2023/07/10 01:26:47;;;;;;;4.50;1.70;;;21.00;92.60;;;;;;5084837;28;20172;-74
2023/07/10 01:29:21;;;;;;;4.73;2.00;;;21.00;92.40;;;;;;5090939;28;20176;-74
2023/07/10 01:31:50;;;;;;;5.50;2.67;;;21.00;92.70;;;;;;5090529;28;20205;-74
2023/07/10 01:34:17;;;;;;;6.97;3.00;;;21.00;92.30;;;;;;5091072;28;20773;-74
2023/07/10 01:36:44;;;;;;;3.80;1.80;;;21.00;92.50;;;;;;5090604;28;20433;-74
2023/07/10 01:39:09;;;;;;;8.10;2.73;;;21.00;92.40;;;;;;5091144;28;20778;-74
2023/07/10 01:41:41;;;;;;;4.80;2.10;;;20.90;92.80;;;;;;5090416;28;20449;-74
2023/07/10 01:44:24;;;;;;;9.93;2.53;;;20.80;92.90;;;;;;5084671;28;20203;-74
2023/07/10 01:46:50;;;;;;;7.70;2.67;;;20.80;92.60;;;;;;5087150;28;20419;-74
2023/07/10 01:49:19;;;;;;;4.80;2.27;;;20.80;92.40;;;;;;5082807;28;20414;-74
2023/07/10 01:51:45;;;;;;;6.40;2.73;;;20.80;92.60;;;;;;5090047;28;20576;-75
2023/07/10 01:54:13;;;;;;;5.07;2.83;;;20.90;92.40;;;;;;5091137;28;21245;-75
2023/07/10 01:56:40;;;;;;;7.80;2.00;;;20.90;92.40;;;;;;5090951;28;20410;-75
2023/07/10 01:59:05;;;;;;;6.83;2.90;;;21.00;92.50;;;;;;5090914;28;20566;-75
2023/07/10 02:01:31;;;;;;;7.60;3.03;;;21.00;92.50;;;;;;5090210;28;20446;-74
2023/07/10 02:03:56;;;;;;;3.83;2.20;;;20.90;92.80;;;;;;5090906;28;20644;-75
2023/07/10 02:06:22;;;;;;;5.30;2.43;;;20.90;92.20;;;;;;5087061;28;20181;-74
2023/07/10 02:08:48;;;;;;;4.43;2.40;;;21.00;92.10;;;;;;5063481;28;20823;-75
2023/07/10 02:11:14;;;;;;;3.47;1.80;;;21.00;92.40;;;;;;5079959;28;20184;-75
2023/07/10 02:13:40;;;;;;;7.43;3.00;;;21.00;92.60;;;;;;5082550;28;20637;-75
2023/07/10 02:16:10;;;;;;;4.00;2.17;;;21.00;92.60;;;;;;5093539;28;20418;-74
2023/07/10 02:18:36;;;;;;;5.30;2.50;;;21.00;92.90;;;;;;5082759;28;20169;-74
2023/07/10 02:21:01;;;;;;;5.70;2.57;;;20.90;92.80;;;;;;5093611;28;20720;-74
2023/07/10 02:23:27;;;;;;;6.20;2.40;;;21.00;92.60;;;;;;5078937;28;20188;-75
2023/07/10 02:25:53;;;;;;;3.80;2.20;;;20.90;92.70;;;;;;5094279;28;20436;-74
2023/07/10 02:28:19;;;;;;;4.83;2.47;;;20.90;92.80;;;;;;5094221;28;21146;-74
2023/07/10 02:30:44;;;;;;;5.13;2.40;;;20.90;92.90;;;;;;5093590;28;20184;-74
2023/07/10 02:33:10;;;;;;;5.87;3.00;;;20.90;92.80;;;;;;5093981;28;20180;-74
2023/07/10 02:35:35;;;;;;;4.07;2.33;;;20.90;92.80;;;;;;5094146;28;20291;-74
2023/07/10 02:38:01;;;;;;;5.53;2.70;;;21.00;92.80;;;;;;5093880;28;20561;-74
2023/07/10 02:40:27;;;;;;;4.20;2.60;;;21.00;93.10;;;;;;5094146;28;20605;-74
2023/07/10 02:42:52;;;;;;;17.10;3.63;;;21.00;93.00;;;;;;5088405;28;20209;-74
2023/07/10 02:45:19;;;;;;;6.70;2.23;;;21.00;93.10;;;;;;5092695;28;20188;-75
2023/07/10 02:47:44;;;;;;;10.23;2.50;;;21.00;93.20;;;;;;5082897;28;20211;-74
2023/07/10 02:50:11;;;;;;;6.40;2.57;;;21.00;94.90;;;;;;5092471;28;20419;-74
2023/07/10 02:52:36;;;;;;;8.33;2.73;;;20.90;95.10;;;;;;5093400;28;20782;-75
2023/07/10 02:55:02;;;;;;;6.67;2.93;;;20.90;95.40;;;;;;5094031;28;20483;-74
2023/07/10 02:57:28;;;;;;;3.27;1.83;;;20.80;95.70;;;;;;5081300;28;20318;-74
2023/07/10 02:59:54;;;;;;;5.73;2.73;;;20.80;96.30;;;;;;5092085;28;20504;-75
2023/07/10 03:02:19;;;;;;;5.90;3.10;;;20.70;96.60;;;;;;5084371;28;20659;-75
2023/07/10 03:04:45;;;;;;;3.77;2.13;;;20.80;96.20;;;;;;5093826;28;20263;-75
2023/07/10 03:07:11;;;;;;;4.53;2.20;;;20.80;96.20;;;;;;5083216;28;20631;-75
2023/07/10 03:09:36;;;;;;;6.30;2.97;;;20.80;96.70;;;;;;5077095;28;20634;-75
2023/07/10 03:12:02;;;;;;;9.53;3.37;;;20.80;96.70;;;;;;5077311;28;20181;-75
2023/07/10 03:14:28;;;;;;;5.53;2.03;;;20.70;96.40;;;;;;5091240;28;20185;-74
2023/07/10 03:16:53;;;;;;;8.03;2.60;;;20.70;96.80;;;;;;5093182;28;20198;-75
2023/07/10 03:19:19;;;;;;;27.07;2.97;;;20.70;97.20;;;;;;5079749;28;20192;-75
2023/07/10 03:21:45;;;;;;;8.20;2.73;;;20.80;97.10;;;;;;5091766;28;20204;-75
2023/07/10 03:24:11;;;;;;;5.93;2.50;;;20.80;97.50;;;;;;5079312;28;20184;-74
2023/07/10 03:26:36;;;;;;;4.00;1.97;;;20.80;97.00;;;;;;5085554;28;20697;-74
2023/07/10 03:29:11;;;;;;;3.40;1.97;;;20.90;97.50;;;;;;5093237;28;20184;-74
2023/07/10 03:31:37;;;;;;;4.97;2.50;;;20.90;97.20;;;;;;5092505;28;20187;-74
2023/07/10 03:34:03;;;;;;;5.93;2.60;;;20.90;97.30;;;;;;5093811;28;20430;-74
2023/07/10 03:36:29;;;;;;;5.60;2.20;;;20.90;97.50;;;;;;5092940;28;20688;-74
2023/07/10 03:38:54;;;;;;;5.77;2.20;;;20.80;97.40;;;;;;5093645;28;20199;-74
2023/07/10 03:41:21;;;;;;;8.33;3.13;;;20.80;97.30;;;;;;5082184;28;20212;-74
2023/07/10 03:43:48;;;;;;;6.53;2.33;;;20.90;97.90;;;;;;5075366;28;20260;-74
2023/07/10 03:46:15;;;;;;;3.50;2.10;;;20.80;98.20;;;;;;5076772;28;20510;-74
2023/07/10 03:48:40;;;;;;;6.83;2.60;;;20.80;98.20;;;;;;5093238;28;20427;-76
2023/07/10 03:51:06;;;;;;;3.70;1.80;;;20.80;98.90;;;;;;5092559;28;20452;-74
2023/07/10 03:53:32;;;;;;;5.67;2.30;;;20.80;98.30;;;;;;5086670;28;20177;-74
2023/07/10 03:55:57;;;;;;;5.70;2.83;;;20.80;98.70;;;;;;5085937;28;20184;-74
2023/07/10 03:58:29;;;;;;;4.43;2.40;;;20.80;98.70;;;;;;5092691;28;20176;-74
2023/07/10 04:00:58;;;;;;;11.60;2.43;;;20.80;98.40;;;;;;5085049;28;20403;-74
2023/07/10 04:03:29;;;;;;;4.93;1.80;;;20.80;98.00;;;;;;5092481;28;20461;-73
2023/07/10 04:05:58;;;;;;;12.50;2.23;;;20.90;98.10;;;;;;5092959;28;20445;-74
2023/07/10 04:08:29;;;;;;;5.73;2.77;;;20.90;98.30;;;;;;5064511;28;20416;-74
2023/07/10 04:10:57;;;;;;;3.93;2.27;;;20.90;98.30;;;;;;5075123;28;20487;-74
2023/07/10 04:13:26;;;;;;;5.67;2.47;;;20.90;98.50;;;;;;5093028;28;20450;-74
2023/07/10 04:16:20;;;;;;;8.00;2.90;;;20.90;99.10;;;;;;5092742;28;20418;-74
2023/07/10 04:18:47;;;;;;;3.60;2.20;;;20.90;99.10;;;;;;5070973;28;20443;-73
2023/07/10 04:21:25;;;;;;;7.87;3.43;;;20.90;99.40;;;;;;5092054;28;20437;-74
2023/07/10 04:23:51;;;;;;;17.70;2.90;;;20.90;98.80;;;;;;5073782;28;20872;-74
2023/07/10 04:26:20;;;;;;;5.10;2.70;;;21.00;98.60;;;;;;5062389;28;20424;-73
2023/07/10 04:28:48;;;;;;;7.67;2.73;;;21.00;99.90;;;;;;5085211;28;20429;-73
2023/07/10 04:31:14;;;;;;;4.73;2.80;;;20.90;99.90;;;;;;5091517;28;20901;-73
2023/07/10 04:33:40;;;;;;;7.13;2.73;;;20.80;99.90;;;;;;5092108;28;20418;-74
2023/07/10 04:36:06;;;;;;;5.73;3.10;;;20.80;99.90;;;;;;5091660;28;20421;-74
2023/07/10 04:38:31;;;;;;;5.73;2.90;;;20.70;99.90;;;;;;5091629;28;20742;-73
2023/07/10 04:40:59;;;;;;;7.73;3.60;;;20.60;99.90;;;;;;5091327;28;20184;-74
2023/07/10 04:43:27;;;;;;;5.10;2.80;;;20.50;99.90;;;;;;5086026;28;20220;-74
2023/07/10 04:45:57;;;;;;;11.43;2.80;;;20.60;99.90;;;;;;5091729;28;20421;-73
2023/07/10 04:48:24;;;;;;;4.07;2.80;;;20.60;99.90;;;;;;5080997;28;20442;-73
2023/07/10 04:50:51;;;;;;;11.10;3.10;;;20.70;99.90;;;;;;5091474;28;20425;-73
2023/07/10 04:53:17;;;;;;;16.87;3.00;;;20.80;99.90;;;;;;5091152;28;20511;-74
2023/07/10 04:55:44;;;;;;;4.20;3.00;;;20.90;99.70;;;;;;5091663;28;20467;-73
2023/07/10 04:58:10;;;;;;;6.20;3.17;;;21.00;98.80;;;;;;5091982;28;20434;-74
2023/07/10 05:00:36;;;;;;;6.23;2.83;;;21.20;98.90;;;;;;5067220;28;20432;-73
2023/07/10 05:03:03;;;;;;;9.67;2.63;;;21.30;98.70;;;;;;5090060;28;20215;-74
2023/07/10 05:05:29;;;;;;;5.50;2.40;;;21.40;98.80;;;;;;5092305;28;20534;-75
2023/07/10 05:07:55;;;;;;;4.33;2.40;;;21.50;97.80;;;;;;5069143;28;20424;-75
2023/07/10 05:10:20;;;;;;;3.67;2.67;;;21.50;97.80;;;;;;5071930;28;20224;-75
2023/07/10 05:12:46;;;;;;;5.20;3.10;;;21.50;97.70;;;;;;5080407;28;20242;-74
2023/07/10 05:15:12;;;;;;;7.37;2.77;;;21.60;98.20;;;;;;5083500;28;20375;-74
2023/07/10 05:17:37;;;;;;;5.20;2.83;;;21.60;98.00;;;;;;5083960;28;20187;-74
2023/07/10 05:20:03;;;;;;;5.87;2.83;;;21.60;98.30;;;;;;5082286;28;20652;-74
2023/07/10 05:22:29;;;;;;;8.30;2.70;;;21.60;98.50;;;;;;5082750;28;20299;-74
2023/07/10 05:24:54;;;;;;;4.83;2.53;;;21.60;99.40;;;;;;5076121;28;20196;-75
2023/07/10 05:27:20;;;;;;;7.77;2.60;;;21.70;99.60;;;;;;5089245;28;20615;-75
2023/07/10 05:29:45;;;;;;;6.57;2.40;;;21.70;99.00;;;;;;5091337;28;20183;-74
2023/07/10 05:32:11;;;;;;;13.33;3.20;;;21.80;98.40;;;;;;5084506;28;20313;-74
2023/07/10 05:34:37;;;;;;;9.20;3.20;;;21.90;98.20;;;;;;5082365;28;20245;-74
2023/07/10 05:37:03;;;;;;;5.10;2.80;;;22.10;98.20;;;;;;5090635;28;20531;-73
2023/07/10 05:39:29;;;;;;;6.27;3.07;;;22.30;97.70;;;;;;5090977;28;20187;-73
2023/07/10 05:41:56;;;;;;;6.50;3.00;;;22.50;97.50;;;;;;5071937;28;20208;-71
2023/07/10 05:44:21;;;;;;;4.97;2.93;;;22.50;97.60;;;;;;5082126;28;20414;-71
2023/07/10 05:46:47;;;;;;;16.67;3.13;;;22.60;97.60;;;;;;5088483;28;20908;-72
2023/07/10 05:49:13;;;;;;;7.10;3.37;;;22.60;97.50;;;;;;5082814;28;20478;-71
2023/07/10 05:51:39;;;;;;;8.60;3.10;;;22.60;97.30;;;;;;5089981;28;20583;-71
2023/07/10 05:54:04;;;;;;;8.77;2.33;;;22.60;97.50;;;;;;5079544;28;20192;-71
2023/07/10 05:56:30;;;;;;;4.40;2.40;;;22.70;97.30;;;;;;5088799;28;20208;-71
2023/07/10 05:58:56;;;;;;;3.97;2.20;;;22.80;97.20;;;;;;5090547;28;20192;-71
2023/07/10 06:01:22;;;;;;;6.57;2.43;;;22.90;97.40;;;;;;5089712;28;20188;-71
2023/07/10 06:03:47;;;;;;;3.70;2.30;;;23.00;97.30;;;;;;5090575;28;20184;-71
2023/07/10 06:06:13;;;;;;;5.57;3.20;;;23.00;97.10;;;;;;5087512;28;20324;-72
2023/07/10 06:08:40;;;;;;;4.47;2.50;;;23.10;97.00;;;;;;5063682;28;20172;-71
2023/07/10 06:11:07;;;;;;;6.33;3.43;;;23.30;97.00;;;;;;5076427;28;20582;-71
2023/07/10 06:13:33;;;;;;;7.57;2.43;;;23.40;96.80;;;;;;5070923;28;20476;-72
2023/07/10 06:15:59;;;;;;;12.73;2.63;;;23.40;97.10;;;;;;5082536;28;20885;-71
2023/07/10 06:18:26;;;;;;;5.80;2.47;;;23.50;97.30;;;;;;5074007;28;20205;-71
2023/07/10 06:20:59;;;;;;;6.73;2.70;;;23.60;97.20;;;;;;5089190;28;20910;-71
2023/07/10 06:23:27;;;;;;;8.23;3.73;;;23.60;96.70;;;;;;5077705;28;20463;-72
2023/07/10 06:25:54;;;;;;;7.83;2.27;;;23.90;97.10;;;;;;5075701;28;20462;-72
2023/07/10 06:28:20;;;;;;;4.50;3.07;;;24.00;96.70;;;;;;5082232;28;20414;-72
2023/07/10 06:30:55;;;;;;;4.67;2.87;;;24.20;96.50;;;;;;5077755;28;20442;-72
2023/07/10 06:33:21;;;;;;;7.77;2.40;;;24.30;96.40;;;;;;5077115;28;20418;-72
2023/07/10 06:35:46;;;;;;;10.00;3.23;;;24.50;95.90;;;;;;5079555;28;21124;-72
2023/07/10 06:38:12;;;;;;;5.27;2.17;;;24.80;95.30;;;;;;5081158;28;20627;-72
2023/07/10 06:40:37;;;;;;;3.33;2.07;;;24.80;95.70;;;;;;5086171;28;20187;-72
2023/07/10 06:43:03;;;;;;;7.23;2.40;;;24.90;95.30;;;;;;5083414;28;20641;-72
2023/07/10 06:45:29;;;;;;;7.53;3.10;;;25.30;94.70;;;;;;5088400;28;20172;-72
2023/07/10 06:47:54;;;;;;;3.73;2.23;;;25.30;94.70;;;;;;5085203;28;20183;-72
2023/07/10 06:50:20;;;;;;;8.13;2.70;;;25.50;94.40;;;;;;5090737;28;20203;-72
2023/07/10 06:52:46;;;;;;;4.87;2.40;;;25.80;93.90;;;;;;5089877;28;20194;-72
2023/07/10 06:55:14;;;;;;;4.67;2.50;;;25.80;94.00;;;;;;5091047;28;20184;-72
2023/07/10 06:57:40;;;;;;;4.70;2.30;;;26.00;93.20;;;;;;5073323;28;20629;-72
2023/07/10 07:00:11;;;;;;;5.67;2.57;;;26.10;93.00;;;;;;5088616;28;20500;-72
2023/07/10 07:02:37;;;;;;;7.47;2.83;;;26.10;92.40;;;;;;5079409;28;20188;-72
2023/07/10 07:05:04;;;;;;;8.20;2.20;;;26.20;92.40;;;;;;5094387;28;20936;-72
2023/07/10 07:07:30;;;;;;;4.20;2.27;;;26.20;92.30;;;;;;5077154;28;20421;-73
2023/07/10 07:09:55;;;;;;;4.03;1.97;;;26.20;92.10;;;;;;5071114;28;20418;-72
2023/07/10 07:12:21;;;;;;;3.93;2.10;;;26.20;92.60;;;;;;5084743;28;20191;-72
2023/07/10 07:14:47;;;;;;;5.13;2.53;;;26.10;92.60;;;;;;5079763;28;20188;-73
2023/07/10 07:17:14;;;;;;;4.97;2.77;;;26.30;92.20;;;;;;5082994;28;20185;-73
2023/07/10 07:19:41;;;;;;;4.53;2.70;;;26.30;92.10;;;;;;5086897;28;20772;-73
2023/07/10 07:22:06;;;;;;;6.20;2.70;;;26.30;91.50;;;;;;5084408;28;20774;-73
2023/07/10 07:24:32;;;;;;;18.73;2.63;;;26.50;92.10;;;;;;5079266;28;21096;-73
2023/07/10 07:26:59;;;;;;;5.60;2.80;;;26.80;91.50;;;;;;5086528;28;20777;-72
2023/07/10 07:29:28;;;;;;;5.40;2.70;;;27.20;90.90;;;;;;5071182;28;20625;-72
2023/07/10 07:31:54;;;;;;;4.77;2.70;;;27.00;91.10;;;;;;5086033;28;20453;-72
2023/07/10 07:34:20;;;;;;;10.60;2.50;;;27.00;91.20;;;;;;5086568;28;20232;-73
2023/07/10 07:36:49;;;;;;;6.10;2.70;;;27.10;91.00;;;;;;5087262;28;20188;-72
2023/07/10 07:39:15;;;;;;;6.20;2.60;;;27.30;90.50;;;;;;5084479;28;20674;-73
2023/07/10 07:41:41;;;;;;;8.43;2.50;;;27.40;90.50;;;;;;5085892;28;20278;-73
2023/07/10 07:44:07;;;;;;;6.30;3.27;;;27.40;90.30;;;;;;5089051;28;20263;-73
2023/07/10 07:46:32;;;;;;;6.60;2.58;;;28.10;88.70;;;;;;5088619;28;20168;-73
2023/07/10 07:48:58;;;;;;;7.07;2.47;;;28.80;88.30;;;;;;5088785;28;20632;-71
2023/07/10 07:51:24;;;;;;;11.68;3.42;;;29.80;86.30;;;;;;5092522;28;20188;-69
2023/07/10 07:54:10;;;;;;;5.75;3.40;;;30.60;83.60;;;;;;5086679;28;20178;-70
2023/07/10 07:56:36;;;;;;;6.68;2.65;;;30.80;82.80;;;;;;5066477;28;20191;-70
2023/07/10 07:59:02;;;;;;;5.88;2.78;;;31.30;81.20;;;;;;5093572;28;20176;-70
2023/07/10 08:01:27;;;;;;;14.55;2.80;;;31.30;80.50;;;;;;5092622;28;20184;-70
2023/07/10 08:03:53;;;;;;;7.05;2.83;;;31.80;79.10;;;;;;5093200;28;20283;-70
2023/07/10 08:06:18;;;;;;;7.57;3.17;;;31.60;79.00;;;;;;5089770;28;20537;-70
2023/07/10 08:08:45;;;;;;;9.32;3.03;;;31.80;78.40;;;;;;5064371;28;20188;-70
2023/07/10 08:11:11;;;;;;;4.82;2.78;;;32.10;77.30;;;;;;5080947;28;20188;-70
2023/07/10 08:13:36;;;;;;;3.40;2.22;;;32.30;76.80;;;;;;5081484;28;20640;-70
2023/07/10 08:16:02;;;;;;;9.05;3.35;;;32.10;76.80;;;;;;5092190;28;20180;-71
2023/07/10 08:18:27;;;;;;;6.60;2.88;;;31.70;77.20;;;;;;5081635;28;20483;-70
2023/07/10 08:21:03;;;;;;;3.97;2.85;;;30.90;79.50;;;;;;5091802;28;20207;-70
2023/07/10 08:23:29;;;;;;;19.08;3.60;;;30.40;80.60;;;;;;5076048;28;20724;-69
2023/07/10 08:25:55;;;;;;;7.93;3.15;;;29.90;81.20;;;;;;5083345;28;20262;-70
2023/07/10 08:28:20;;;;;;;6.28;2.55;;;29.40;83.70;;;;;;5092301;28;20176;-69
2023/07/10 08:30:46;;;;;;;4.45;2.90;;;29.10;83.60;;;;;;5091468;28;20176;-70
2023/07/10 08:33:12;;;;;;;4.45;2.85;;;28.60;85.80;;;;;;5091974;28;20191;-70
2023/07/10 08:35:38;;;;;;;8.50;3.08;;;28.30;86.60;;;;;;5091905;28;20176;-70
2023/07/10 08:38:05;;;;;;;3.83;2.30;;;28.20;86.70;;;;;;5091613;28;20184;-70
2023/07/10 08:40:34;;;;;;;9.27;2.65;;;28.20;87.10;;;;;;5091598;28;20176;-71
2023/07/10 08:43:15;;;;;;;4.53;2.35;;;29.00;86.30;;;;;;5082807;28;20216;-72
2023/07/10 08:45:42;;;;;;;3.17;2.15;;;29.50;85.40;;;;;;5077999;28;20180;-69
2023/07/10 08:48:31;;;;;;;4.18;2.33;;;30.40;81.40;;;;;;5074846;28;20180;-70
2023/07/10 08:51:03;;;;;;;6.85;3.40;;;30.90;79.50;;;;;;5081127;28;20685;-70
2023/07/10 08:53:31;;;;;;;6.57;3.50;;;31.60;79.10;;;;;;5082265;28;20214;-70
2023/07/10 08:56:27;;;;;;;5.72;2.90;;;32.30;76.00;;;;;;5091901;28;20259;-70
2023/07/10 08:59:02;;;;;;;17.10;3.70;;;32.30;75.80;;;;;;5061570;28;20211;-70
2023/07/10 09:01:35;;;;;;;10.13;3.15;;;32.60;75.00;;;;;;5084075;28;20211;-70
2023/07/10 09:04:04;;;;;;;5.68;3.10;;;32.40;75.00;;;;;;5083457;28;20628;-69
2023/07/10 09:06:32;;;;;;;6.50;2.50;;;32.40;74.90;;;;;;5085483;28;20169;-70
2023/07/10 09:08:58;;;;;;;5.45;3.53;;;32.10;74.30;;;;;;5065672;28;20187;-70
2023/07/10 09:11:24;;;;;;;5.68;2.88;;;31.80;75.30;;;;;;5076601;28;20180;-70
2023/07/10 09:14:33;;;;;;;16.00;3.63;;;32.40;75.20;;;;;;5079557;28;20184;-69
2023/07/10 09:17:00;;;;;;;8.30;3.33;;;33.00;72.90;;;;;;5038763;28;20203;-70
2023/07/10 09:19:26;;;;;;;10.70;3.05;;;32.70;73.00;;;;;;5084971;28;20199;-70
2023/07/10 09:21:52;;;;;;;6.20;2.90;;;32.70;72.40;;;;;;5086049;28;20191;-70
2023/07/10 09:24:22;;;;;;;5.35;3.22;;;32.60;72.70;;;;;;5073870;28;20290;-70
2023/07/10 09:26:49;;;;;;;13.05;3.63;;;33.20;70.80;;;;;;5085005;28;20211;-69
2023/07/10 09:29:25;;;;;;;9.18;2.97;;;33.20;71.00;;;;;;5091225;28;20255;-70
2023/07/10 09:32:07;;;;;;;6.35;3.45;;;33.20;70.80;;;;;;5089030;28;20687;-69
2023/07/10 09:34:34;;;;;;;7.35;3.15;;;32.70;71.10;;;;;;5082220;28;20183;-70
2023/07/10 09:37:03;;;;;;;6.20;2.50;;;32.70;70.00;;;;;;5078549;28;20230;-69
2023/07/10 09:39:32;;;;;;;5.97;2.83;;;32.40;71.40;;;;;;5082817;28;20187;-69
2023/07/10 09:41:59;;;;;;;8.30;2.88;;;32.20;73.00;;;;;;5079336;28;20219;-69
2023/07/10 09:44:34;;;;;;;4.65;2.58;;;32.60;72.10;;;;;;5077639;28;20589;-69
2023/07/10 09:47:10;;;;;;;4.82;2.33;;;32.10;71.80;;;;;;5085683;28;20176;-70
2023/07/10 09:49:57;;;;;;;5.32;3.05;;;32.10;72.10;;;;;;5057885;28;20180;-70
2023/07/10 09:52:41;;;;;;;5.30;2.10;;;31.90;72.00;;;;;;5085121;28;20742;-70
2023/07/10 09:55:16;;;;;;;9.00;3.05;;;32.30;72.20;;;;;;5090695;28;20733;-70
2023/07/10 09:57:50;;;;;;;6.13;2.70;;;32.20;71.50;;;;;;5066892;28;20200;-70
2023/07/10 10:00:17;;;;;;;7.28;3.20;;;31.70;72.60;;;;;;5080092;28;20179;-70
2023/07/10 10:02:49;;;;;;;7.25;4.03;;;31.60;73.60;;;;;;5069254;28;20611;-70
2023/07/10 10:05:19;;;;;;;17.45;2.42;;;31.60;73.50;;;;;;5073447;28;20254;-71
2023/07/10 10:07:50;;;;;;;7.45;2.85;;;32.00;71.40;;;;;;5068472;28;20185;-70
2023/07/10 10:10:37;;;;;;;4.00;2.58;;;32.40;69.90;;;;;;5069537;28;20260;-71
2023/07/10 10:13:24;;;;;;;7.90;2.65;;;32.30;70.10;;;;;;5058002;28;20184;-70
2023/07/10 10:15:53;;;;;;;7.38;3.33;;;32.20;71.10;;;;;;5079775;28;20203;-70
2023/07/10 10:18:39;;;;;;;5.88;3.50;;;31.70;72.50;;;;;;5071637;28;20570;-70
2023/07/10 10:21:05;;;;;;;4.43;2.85;;;31.50;73.10;;;;;;5073161;28;20184;-70
2023/07/10 10:23:35;;;;;;;4.78;2.90;;;31.20;75.10;;;;;;5056867;28;20654;-70
2023/07/10 10:26:26;;;;;;;7.10;2.83;;;31.20;73.50;;;;;;5090494;28;20184;-70
2023/07/10 10:29:22;;;;;;;7.03;1.92;;;30.80;73.10;;;;;;5081662;28;20199;-70
2023/07/10 10:32:00;;;;;;;5.07;3.75;;;30.50;74.10;;;;;;5086994;28;20240;-70
2023/07/10 10:34:56;;;;;;;9.32;3.85;;;30.40;74.40;;;;;;5094335;28;20249;-71
2023/07/10 10:37:39;;;;;;;4.78;2.42;;;29.80;75.80;;;;;;5068699;28;20212;-71
2023/07/10 10:40:20;;;;;;;5.78;2.45;;;29.30;77.00;;;;;;5094018;28;20624;-70
2023/07/10 10:43:16;;;;;;;6.35;3.25;;;29.10;80.80;;;;;;5093468;28;20195;-70
2023/07/10 10:46:00;;;;;;;4.75;2.70;;;29.10;82.00;;;;;;5075843;28;20172;-70
2023/07/10 10:48:42;;;;;;;7.30;2.42;;;29.00;82.00;;;;;;5093689;28;21038;-70
2023/07/10 10:51:25;;;;;;;3.75;2.72;;;29.10;81.80;;;;;;5093040;28;20187;-70
2023/07/10 10:54:12;;;;;;;5.53;2.65;;;29.10;81.60;;;;;;5084894;28;20244;-70
2023/07/10 10:56:45;;;;;;;4.00;2.53;;;29.30;82.20;;;;;;5089427;28;20173;-71
2023/07/10 10:59:29;;;;;;;4.40;2.30;;;29.40;80.90;;;;;;5086783;28;20184;-70
2023/07/10 11:02:19;;;;;;;7.95;2.85;;;29.50;78.90;;;;;;5069979;28;20656;-70
2023/07/10 11:05:21;;;;;;;10.60;2.42;;;29.50;77.30;;;;;;5093476;28;20197;-70
2023/07/10 11:07:53;;;;;;;8.93;2.63;;;29.70;74.90;;;;;;5074630;28;20177;-70
2023/07/10 11:10:29;;;;;;;6.45;2.72;;;30.10;71.50;;;;;;5072164;28;20172;-70
2023/07/10 11:12:55;;;;;;;21.92;3.33;;;30.40;68.80;;;;;;5086426;28;20241;-70
2023/07/10 11:15:22;;;;;;;6.28;2.22;;;31.00;67.40;;;;;;5078036;28;20187;-71
2023/07/10 11:17:53;;;;;;;6.97;2.80;;;31.30;63.40;;;;;;5080133;28;20168;-69
2023/07/10 11:20:22;;;;;;;5.75;3.05;;;31.50;58.00;;;;;;5089764;28;20199;-70
2023/07/10 11:22:54;;;;;;;4.97;2.75;;;31.80;56.80;;;;;;5058324;28;20664;-69
2023/07/10 11:25:43;;;;;;;4.68;2.55;;;31.60;57.50;;;;;;5078956;28;20183;-69
2023/07/10 11:28:26;;;;;;;5.53;2.60;;;31.60;58.10;;;;;;5083442;28;20180;-69
2023/07/10 11:31:17;;;;;;;10.20;3.33;;;31.30;59.60;;;;;;5079730;28;20176;-70
2023/07/10 11:33:43;;;;;;;4.47;2.78;;;31.40;60.20;;;;;;5093191;28;20286;-70
2023/07/10 11:36:14;;;;;;;4.75;2.80;;;31.30;60.90;;;;;;5092637;28;20192;-69
2023/07/10 11:39:15;;;;;;;6.10;2.75;;;31.30;61.60;;;;;;5093227;28;20229;-70
2023/07/10 11:41:44;;;;;;;9.50;2.83;;;31.60;60.60;;;;;;5078351;28;20211;-71
2023/07/10 11:44:28;;;;;;;10.63;2.85;;;31.70;58.60;;;;;;5092333;28;20559;-69
2023/07/10 11:46:57;;;;;;;5.90;3.10;;;31.70;54.10;;;;;;5081341;28;20267;-69
2023/07/10 11:50:03;;;;;;;4.70;2.67;;;31.60;53.50;;;;;;5084791;28;20176;-69
2023/07/10 11:52:31;;;;;;;6.47;2.90;;;31.90;52.80;;;;;;5090877;28;20192;-70
2023/07/10 11:54:56;;;;;;;4.60;2.85;;;32.00;52.80;;;;;;5084160;28;20596;-70
2023/07/10 11:57:29;;;;;;;4.10;2.58;;;32.20;55.20;;;;;;5082219;28;20219;-71
2023/07/10 12:00:22;;;;;;;5.18;2.85;;;32.10;56.30;;;;;;5090314;28;20184;-71
2023/07/10 12:02:54;;;;;;;5.18;2.80;;;32.30;56.20;;;;;;5071590;28;20690;-70
2023/07/10 12:05:34;;;;;;;5.07;2.80;;;32.20;53.90;;;;;;5092563;28;20195;-70
2023/07/10 12:08:09;;;;;;;4.93;1.98;;;32.00;54.80;;;;;;5069638;28;20173;-71
2023/07/10 12:10:49;;;;;;;3.20;2.15;;;31.90;53.10;;;;;;5065259;28;20176;-70
2023/07/10 12:13:28;;;;;;;4.47;2.63;;;31.80;54.30;;;;;;5061165;28;20177;-70
2023/07/10 12:15:57;;;;;;;4.43;2.30;;;31.90;51.30;;;;;;5084884;28;20209;-71
2023/07/10 12:18:38;;;;;;;5.28;2.78;;;31.80;50.90;;;;;;5079593;28;20194;-69
2023/07/10 12:21:11;;;;;;;2.88;1.80;;;31.50;51.80;;;;;;5088150;28;20203;-70
2023/07/10 12:23:37;;;;;;;4.63;2.50;;;31.80;50.30;;;;;;5069376;28;20196;-69
2023/07/10 12:26:04;;;;;;;4.10;2.53;;;31.80;49.50;;;;;;5068304;28;20176;-69
2023/07/10 12:28:30;;;;;;;5.60;2.42;;;31.80;49.60;;;;;;5077910;28;20176;-69
2023/07/10 12:30:57;;;;;;;3.30;2.20;;;32.00;48.30;;;;;;5075675;28;20192;-68
2023/07/10 12:33:45;;;;;;;4.13;2.30;;;32.10;49.20;;;;;;5081016;28;20181;-69
2023/07/10 12:36:29;;;;;;;4.82;2.15;;;32.10;48.90;;;;;;5080102;28;20281;-69
2023/07/10 12:38:59;;;;;;;5.82;2.40;;;32.00;50.40;;;;;;5078915;28;20188;-70
2023/07/10 12:41:25;;;;;;;4.55;1.92;;;31.90;49.70;;;;;;5085508;28;20184;-70
2023/07/10 12:43:57;;;;;;;4.75;2.33;;;32.00;50.60;;;;;;5082515;28;20226;-70
2023/07/10 12:46:28;;;;;;;5.05;2.25;;;32.10;50.20;;;;;;5087317;28;20187;-70
2023/07/10 12:49:10;;;;;;;4.40;2.28;;;32.00;49.90;;;;;;5080734;28;20206;-70
2023/07/10 12:51:40;;;;;;;4.43;1.90;;;32.10;50.40;;;;;;5080391;28;20191;-69
2023/07/10 12:54:50;;;;;;;4.10;2.38;;;32.20;51.20;;;;;;5075833;28;20195;-69
2023/07/10 12:57:22;;;;;;;4.68;2.10;;;32.20;50.60;;;;;;5073245;28;20220;-68
2023/07/10 12:59:54;;;;;;;8.90;2.97;;;32.30;51.10;;;;;;5088840;28;20229;-70
2023/07/10 13:02:28;;;;;;;7.78;2.55;;;32.20;52.90;;;;;;5090948;28;20192;-70